sensor_id;sensor_type;location;lat;lon;timestamp;noise_LAeq;noise_LA_min;noise_LA_max;noise_LA01;noise_LA95
78074;Laerm;67283;50.960;13.856;2023-04-25T00:01:40;55.84;36.32;74.05;;
78074;Laerm;67283;50.960;13.856;2023-04-25T00:04:09;37.89;35.82;41.10;;
78074;Laerm;67283;50.960;13.856;2023-04-25T00:06:37;38.02;36.26;56.69;;
78074;Laerm;67283;50.960;13.856;2023-04-25T00:09:05;38.03;36.05;55.84;;
78074;Laerm;67283;50.960;13.856;2023-04-25T00:11:35;37.93;35.84;53.17;;
78074;Laerm;67283;50.960;13.856;2023-04-25T00:14:05;37.94;36.21;55.46;;
78074;Laerm;67283;50.960;13.856;2023-04-25T00:16:35;37.78;36.10;49.36;;
78074;Laerm;67283;50.960;13.856;2023-04-25T00:19:03;37.93;36.14;44.76;;
78074;Laerm;67283;50.960;13.856;2023-04-25T00:21:32;38.64;36.18;53.67;;
78074;Laerm;67283;50.960;13.856;2023-04-25T00:24:00;37.81;35.74;40.53;;
78074;Laerm;67283;50.960;13.856;2023-04-25T00:26:28;37.70;36.08;39.48;;
78074;Laerm;67283;50.960;13.856;2023-04-25T00:28:56;37.63;35.95;39.38;;
78074;Laerm;67283;50.960;13.856;2023-04-25T00:31:27;37.66;35.85;39.26;;
78074;Laerm;67283;50.960;13.856;2023-04-25T00:33:55;38.82;35.93;50.43;;
78074;Laerm;67283;50.960;13.856;2023-04-25T00:36:23;51.78;36.13;69.47;;
78074;Laerm;67283;50.960;13.856;2023-04-25T00:38:52;48.02;36.17;65.47;;
78074;Laerm;67283;50.960;13.856;2023-04-25T00:41:20;47.12;35.77;63.40;;
78074;Laerm;67283;50.960;13.856;2023-04-25T00:43:48;39.58;35.79;55.95;;
78074;Laerm;67283;50.960;13.856;2023-04-25T00:46:17;37.71;36.13;39.30;;
78074;Laerm;67283;50.960;13.856;2023-04-25T00:48:48;37.70;36.03;39.93;;
78074;Laerm;67283;50.960;13.856;2023-04-25T00:51:18;52.65;36.04;71.38;;
78074;Laerm;67283;50.960;13.856;2023-04-25T00:53:47;52.65;36.04;71.38;;
78074;Laerm;67283;50.960;13.856;2023-04-25T00:56:16;37.83;36.02;56.47;;
78074;Laerm;67283;50.960;13.856;2023-04-25T00:58:45;46.73;36.05;64.35;;
78074;Laerm;67283;50.960;13.856;2023-04-25T01:01:13;37.80;35.98;53.84;;
78074;Laerm;67283;50.960;13.856;2023-04-25T01:03:41;37.80;35.98;53.84;;
78074;Laerm;67283;50.960;13.856;2023-04-25T01:06:12;37.91;36.01;56.86;;
78074;Laerm;67283;50.960;13.856;2023-04-25T01:08:41;37.79;35.92;54.90;;
78074;Laerm;67283;50.960;13.856;2023-04-25T01:11:09;37.84;35.84;54.08;;
78074;Laerm;67283;50.960;13.856;2023-04-25T01:13:37;37.85;35.63;54.90;;
78074;Laerm;67283;50.960;13.856;2023-04-25T01:16:05;37.76;36.01;48.80;;
78074;Laerm;67283;50.960;13.856;2023-04-25T01:18:33;37.68;35.66;39.40;;
78074;Laerm;67283;50.960;13.856;2023-04-25T01:21:07;37.69;35.83;39.31;;
78074;Laerm;67283;50.960;13.856;2023-04-25T01:23:36;37.72;35.92;39.17;;
78074;Laerm;67283;50.960;13.856;2023-04-25T01:26:04;37.68;35.95;39.29;;
78074;Laerm;67283;50.960;13.856;2023-04-25T01:28:33;37.68;35.95;39.29;;
78074;Laerm;67283;50.960;13.856;2023-04-25T01:31:02;52.25;35.94;72.77;;
78074;Laerm;67283;50.960;13.856;2023-04-25T01:33:30;37.76;36.15;39.27;;
78074;Laerm;67283;50.960;13.856;2023-04-25T01:35:59;37.95;35.75;54.75;;
78074;Laerm;67283;50.960;13.856;2023-04-25T01:38:29;54.29;35.86;72.82;;
78074;Laerm;67283;50.960;13.856;2023-04-25T01:40:58;54.29;35.86;72.82;;
78074;Laerm;67283;50.960;13.856;2023-04-25T01:43:26;37.93;36.01;52.80;;
78074;Laerm;67283;50.960;13.856;2023-04-25T01:45:54;52.35;36.03;69.02;;
78074;Laerm;67283;50.960;13.856;2023-04-25T01:48:23;37.87;35.78;57.66;;
78074;Laerm;67283;50.960;13.856;2023-04-25T01:50:51;37.86;36.08;55.22;;
78074;Laerm;67283;50.960;13.856;2023-04-25T01:53:19;37.82;35.88;51.04;;
78074;Laerm;67283;50.960;13.856;2023-04-25T01:55:50;37.87;36.02;48.40;;
78074;Laerm;67283;50.960;13.856;2023-04-25T01:58:18;49.88;36.40;68.01;;
78074;Laerm;67283;50.960;13.856;2023-04-25T02:00:46;37.89;36.21;50.24;;
78074;Laerm;67283;50.960;13.856;2023-04-25T02:03:14;37.82;36.02;45.64;;
78074;Laerm;67283;50.960;13.856;2023-04-25T02:05:42;37.89;36.19;54.31;;
78074;Laerm;67283;50.960;13.856;2023-04-25T02:08:10;37.84;36.02;54.60;;
78074;Laerm;67283;50.960;13.856;2023-04-25T02:10:38;37.84;36.02;54.60;;
78074;Laerm;67283;50.960;13.856;2023-04-25T02:13:09;47.91;36.09;67.98;;
78074;Laerm;67283;50.960;13.856;2023-04-25T02:15:37;38.63;36.30;53.53;;
78074;Laerm;67283;50.960;13.856;2023-04-25T02:18:06;39.92;36.37;52.72;;
78074;Laerm;67283;50.960;13.856;2023-04-25T02:20:35;39.92;36.37;52.72;;
78074;Laerm;67283;50.960;13.856;2023-04-25T02:23:04;50.97;36.27;70.60;;
78074;Laerm;67283;50.960;13.856;2023-04-25T02:25:32;51.95;36.47;69.70;;
78074;Laerm;67283;50.960;13.856;2023-04-25T02:28:00;47.10;36.18;62.28;;
78074;Laerm;67283;50.960;13.856;2023-04-25T02:30:31;51.50;36.09;68.93;;
78074;Laerm;67283;50.960;13.856;2023-04-25T02:33:00;63.88;36.30;84.05;;
78074;Laerm;67283;50.960;13.856;2023-04-25T02:35:28;51.42;36.71;68.27;;
78074;Laerm;67283;50.960;13.856;2023-04-25T02:37:56;46.95;36.73;61.77;;
78074;Laerm;67283;50.960;13.856;2023-04-25T02:40:24;58.10;37.00;72.11;;
78074;Laerm;67283;50.960;13.856;2023-04-25T02:42:52;58.05;36.95;72.72;;
78074;Laerm;67283;50.960;13.856;2023-04-25T02:45:20;56.17;36.97;70.94;;
78074;Laerm;67283;50.960;13.856;2023-04-25T02:47:51;55.49;36.45;71.97;;
78074;Laerm;67283;50.960;13.856;2023-04-25T02:50:19;52.69;36.96;68.46;;
78074;Laerm;67283;50.960;13.856;2023-04-25T02:52:47;56.13;38.51;71.21;;
78074;Laerm;67283;50.960;13.856;2023-04-25T02:55:15;54.55;38.12;67.29;;
78074;Laerm;67283;50.960;13.856;2023-04-25T02:57:44;56.73;40.50;70.04;;
78074;Laerm;67283;50.960;13.856;2023-04-25T03:00:12;59.72;39.78;75.84;;
78074;Laerm;67283;50.960;13.856;2023-04-25T03:02:41;60.28;39.34;76.23;;
78074;Laerm;67283;50.960;13.856;2023-04-25T03:05:11;63.07;41.51;76.44;;
78074;Laerm;67283;50.960;13.856;2023-04-25T03:07:39;61.02;43.38;78.76;;
78074;Laerm;67283;50.960;13.856;2023-04-25T03:10:09;57.82;42.34;75.76;;
78074;Laerm;67283;50.960;13.856;2023-04-25T03:12:37;56.90;40.70;70.74;;
78074;Laerm;67283;50.960;13.856;2023-04-25T03:15:05;56.43;40.07;69.30;;
78074;Laerm;67283;50.960;13.856;2023-04-25T03:17:33;57.42;40.60;71.26;;
78074;Laerm;67283;50.960;13.856;2023-04-25T03:20:02;56.99;39.72;71.75;;
78074;Laerm;67283;50.960;13.856;2023-04-25T03:22:36;60.94;41.34;76.18;;
78074;Laerm;67283;50.960;13.856;2023-04-25T03:25:04;58.58;40.25;72.76;;
78074;Laerm;67283;50.960;13.856;2023-04-25T03:27:32;59.36;40.93;70.54;;
78074;Laerm;67283;50.960;13.856;2023-04-25T03:30:01;60.90;40.50;76.85;;
78074;Laerm;67283;50.960;13.856;2023-04-25T03:32:29;62.54;40.50;73.57;;
78074;Laerm;67283;50.960;13.856;2023-04-25T03:34:57;60.04;40.18;71.21;;
78074;Laerm;67283;50.960;13.856;2023-04-25T03:37:25;59.57;39.77;72.31;;
78074;Laerm;67283;50.960;13.856;2023-04-25T03:39:56;61.97;41.76;73.78;;
78074;Laerm;67283;50.960;13.856;2023-04-25T03:42:24;63.52;40.63;80.75;;
78074;Laerm;67283;50.960;13.856;2023-04-25T03:44:52;59.86;38.72;72.88;;
78074;Laerm;67283;50.960;13.856;2023-04-25T03:47:20;64.37;39.79;77.74;;
78074;Laerm;67283;50.960;13.856;2023-04-25T03:49:48;61.76;40.40;74.14;;
78074;Laerm;67283;50.960;13.856;2023-04-25T03:52:17;59.26;38.05;74.03;;
78074;Laerm;67283;50.960;13.856;2023-04-25T03:54:46;59.45;39.87;76.17;;
78074;Laerm;67283;50.960;13.856;2023-04-25T03:57:16;62.12;40.20;73.81;;
78074;Laerm;67283;50.960;13.856;2023-04-25T03:59:44;60.71;39.93;75.84;;
78074;Laerm;67283;50.960;13.856;2023-04-25T04:02:13;62.23;38.70;80.25;;
78074;Laerm;67283;50.960;13.856;2023-04-25T04:04:41;59.81;37.71;75.62;;
78074;Laerm;67283;50.960;13.856;2023-04-25T04:07:09;59.94;43.11;71.61;;
78074;Laerm;67283;50.960;13.856;2023-04-25T04:09:37;61.24;37.30;73.55;;
78074;Laerm;67283;50.960;13.856;2023-04-25T04:12:05;62.50;43.02;81.91;;
78074;Laerm;67283;50.960;13.856;2023-04-25T04:14:36;63.38;39.72;75.85;;
78074;Laerm;67283;50.960;13.856;2023-04-25T04:17:04;63.37;40.94;77.97;;
78074;Laerm;67283;50.960;13.856;2023-04-25T04:19:32;60.73;38.17;74.10;;
78074;Laerm;67283;50.960;13.856;2023-04-25T04:22:01;62.07;39.39;74.86;;
78074;Laerm;67283;50.960;13.856;2023-04-25T04:24:29;61.59;41.81;71.78;;
78074;Laerm;67283;50.960;13.856;2023-04-25T04:26:57;62.50;40.21;73.86;;
78074;Laerm;67283;50.960;13.856;2023-04-25T04:29:25;60.85;39.08;73.69;;
78074;Laerm;67283;50.960;13.856;2023-04-25T04:31:56;59.37;37.49;72.65;;
78074;Laerm;67283;50.960;13.856;2023-04-25T04:34:26;61.26;37.62;75.05;;
78074;Laerm;67283;50.960;13.856;2023-04-25T04:36:54;65.00;45.13;78.48;;
78074;Laerm;67283;50.960;13.856;2023-04-25T04:39:22;63.31;40.78;76.53;;
78074;Laerm;67283;50.960;13.856;2023-04-25T04:41:50;64.01;38.74;78.68;;
78074;Laerm;67283;50.960;13.856;2023-04-25T04:44:18;61.82;37.77;76.43;;
78074;Laerm;67283;50.960;13.856;2023-04-25T04:46:46;61.82;37.77;76.43;;
78074;Laerm;67283;50.960;13.856;2023-04-25T04:49:18;62.78;38.08;77.67;;
78074;Laerm;67283;50.960;13.856;2023-04-25T04:51:46;61.78;38.16;73.97;;
78074;Laerm;67283;50.960;13.856;2023-04-25T04:54:14;63.47;40.39;76.55;;
78074;Laerm;67283;50.960;13.856;2023-04-25T04:56:42;60.77;40.18;76.72;;
78074;Laerm;67283;50.960;13.856;2023-04-25T04:59:10;59.82;38.51;72.08;;
78074;Laerm;67283;50.960;13.856;2023-04-25T05:01:39;60.21;38.06;71.29;;
78074;Laerm;67283;50.960;13.856;2023-04-25T05:04:07;62.27;37.96;78.69;;
78074;Laerm;67283;50.960;13.856;2023-04-25T05:06:37;65.41;39.65;76.30;;
78074;Laerm;67283;50.960;13.856;2023-04-25T05:09:05;58.65;37.57;71.76;;
78074;Laerm;67283;50.960;13.856;2023-04-25T05:11:33;66.51;38.24;84.53;;
78074;Laerm;67283;50.960;13.856;2023-04-25T05:14:02;62.09;44.15;74.41;;
78074;Laerm;67283;50.960;13.856;2023-04-25T05:16:30;61.79;40.36;72.05;;
78074;Laerm;67283;50.960;13.856;2023-04-25T05:18:58;64.30;44.63;75.18;;
78074;Laerm;67283;50.960;13.856;2023-04-25T05:21:26;62.66;41.08;71.99;;
78074;Laerm;67283;50.960;13.856;2023-04-25T05:23:59;63.53;38.43;79.01;;
78074;Laerm;67283;50.960;13.856;2023-04-25T05:26:27;61.31;39.83;73.18;;
78074;Laerm;67283;50.960;13.856;2023-04-25T05:28:56;65.34;44.24;77.83;;
78074;Laerm;67283;50.960;13.856;2023-04-25T05:31:24;62.13;41.70;74.48;;
78074;Laerm;67283;50.960;13.856;2023-04-25T05:33:52;58.41;39.11;70.45;;
78074;Laerm;67283;50.960;13.856;2023-04-25T05:36:20;58.41;39.11;70.45;;
78074;Laerm;67283;50.960;13.856;2023-04-25T05:38:48;61.82;37.22;74.51;;
78074;Laerm;67283;50.960;13.856;2023-04-25T05:41:19;58.50;38.45;72.32;;
78074;Laerm;67283;50.960;13.856;2023-04-25T05:43:47;62.93;37.25;80.63;;
78074;Laerm;67283;50.960;13.856;2023-04-25T05:46:15;62.93;37.25;80.63;;
78074;Laerm;67283;50.960;13.856;2023-04-25T05:48:43;59.02;37.24;73.88;;
78074;Laerm;67283;50.960;13.856;2023-04-25T05:51:11;64.90;39.94;80.20;;
78074;Laerm;67283;50.960;13.856;2023-04-25T05:53:39;59.59;40.98;71.00;;
78074;Laerm;67283;50.960;13.856;2023-04-25T05:56:07;55.89;37.71;71.73;;
78074;Laerm;67283;50.960;13.856;2023-04-25T05:58:38;62.78;39.71;81.66;;
78074;Laerm;67283;50.960;13.856;2023-04-25T06:01:06;60.17;37.22;72.87;;
78074;Laerm;67283;50.960;13.856;2023-04-25T06:03:34;58.05;38.29;70.77;;
78074;Laerm;67283;50.960;13.856;2023-04-25T06:06:03;58.82;37.91;72.75;;
78074;Laerm;67283;50.960;13.856;2023-04-25T06:08:31;57.59;37.00;73.90;;
78074;Laerm;67283;50.960;13.856;2023-04-25T06:10:59;59.88;38.15;73.82;;
78074;Laerm;67283;50.960;13.856;2023-04-25T06:13:27;63.01;40.35;77.80;;
78074;Laerm;67283;50.960;13.856;2023-04-25T06:15:58;59.03;37.30;70.54;;
78074;Laerm;67283;50.960;13.856;2023-04-25T06:18:26;65.64;40.11;78.79;;
78074;Laerm;67283;50.960;13.856;2023-04-25T06:20:54;57.44;36.26;75.77;;
78074;Laerm;67283;50.960;13.856;2023-04-25T06:23:23;62.54;36.74;81.71;;
78074;Laerm;67283;50.960;13.856;2023-04-25T06:25:51;62.61;36.63;79.57;;
78074;Laerm;67283;50.960;13.856;2023-04-25T06:28:19;59.04;35.98;79.64;;
78074;Laerm;67283;50.960;13.856;2023-04-25T06:30:48;59.15;36.56;71.31;;
78074;Laerm;67283;50.960;13.856;2023-04-25T06:33:19;55.41;36.17;71.02;;
78074;Laerm;67283;50.960;13.856;2023-04-25T06:35:49;63.56;37.55;80.66;;
78074;Laerm;67283;50.960;13.856;2023-04-25T06:38:17;59.12;36.60;73.23;;
78074;Laerm;67283;50.960;13.856;2023-04-25T06:40:45;63.15;37.05;75.98;;
78074;Laerm;67283;50.960;13.856;2023-04-25T06:43:14;59.82;39.63;74.31;;
78074;Laerm;67283;50.960;13.856;2023-04-25T06:45:42;60.37;36.93;75.27;;
78074;Laerm;67283;50.960;13.856;2023-04-25T06:48:10;60.43;37.26;72.34;;
78074;Laerm;67283;50.960;13.856;2023-04-25T06:50:41;62.16;36.57;79.61;;
78074;Laerm;67283;50.960;13.856;2023-04-25T06:53:09;63.07;36.77;79.08;;
78074;Laerm;67283;50.960;13.856;2023-04-25T06:55:37;61.40;36.48;77.06;;
78074;Laerm;67283;50.960;13.856;2023-04-25T06:58:05;60.78;36.92;71.78;;
78074;Laerm;67283;50.960;13.856;2023-04-25T07:00:34;59.50;36.69;81.73;;
78074;Laerm;67283;50.960;13.856;2023-04-25T07:03:02;59.50;36.69;81.73;;
78074;Laerm;67283;50.960;13.856;2023-04-25T07:05:30;59.07;36.05;84.06;;
78074;Laerm;67283;50.960;13.856;2023-04-25T07:08:01;56.79;36.73;71.53;;
78074;Laerm;67283;50.960;13.856;2023-04-25T07:10:29;60.95;37.18;79.25;;
78074;Laerm;67283;50.960;13.856;2023-04-25T07:12:57;57.23;36.25;74.38;;
78074;Laerm;67283;50.960;13.856;2023-04-25T07:15:25;60.37;39.39;72.69;;
78074;Laerm;67283;50.960;13.856;2023-04-25T07:17:53;61.21;36.79;78.57;;
78074;Laerm;67283;50.960;13.856;2023-04-25T07:20:21;57.85;36.37;71.07;;
78074;Laerm;67283;50.960;13.856;2023-04-25T07:22:49;58.81;36.18;73.58;;
78074;Laerm;67283;50.960;13.856;2023-04-25T07:25:20;55.99;36.32;70.87;;
78074;Laerm;67283;50.960;13.856;2023-04-25T07:27:48;60.30;36.96;79.45;;
78074;Laerm;67283;50.960;13.856;2023-04-25T07:30:17;62.09;37.07;81.28;;
78074;Laerm;67283;50.960;13.856;2023-04-25T07:32:45;55.77;36.58;69.42;;
78074;Laerm;67283;50.960;13.856;2023-04-25T07:35:13;62.28;37.39;80.03;;
78074;Laerm;67283;50.960;13.856;2023-04-25T07:37:41;60.91;38.32;71.39;;
78074;Laerm;67283;50.960;13.856;2023-04-25T07:40:09;59.00;37.91;71.48;;
78074;Laerm;67283;50.960;13.856;2023-04-25T07:42:40;57.69;39.11;72.71;;
78074;Laerm;67283;50.960;13.856;2023-04-25T07:45:08;59.26;38.06;72.86;;
78074;Laerm;67283;50.960;13.856;2023-04-25T07:47:37;60.95;37.33;73.38;;
78074;Laerm;67283;50.960;13.856;2023-04-25T07:50:06;59.28;37.04;71.20;;
78074;Laerm;67283;50.960;13.856;2023-04-25T07:52:35;55.23;36.76;68.15;;
78074;Laerm;67283;50.960;13.856;2023-04-25T07:55:03;55.39;36.42;69.94;;
78074;Laerm;67283;50.960;13.856;2023-04-25T07:57:31;62.83;36.69;82.60;;
78074;Laerm;67283;50.960;13.856;2023-04-25T08:00:02;62.04;38.81;76.22;;
78074;Laerm;67283;50.960;13.856;2023-04-25T08:02:34;65.33;37.20;84.22;;
78074;Laerm;67283;50.960;13.856;2023-04-25T08:05:02;60.13;38.11;75.97;;
78074;Laerm;67283;50.960;13.856;2023-04-25T08:07:31;58.56;36.06;73.28;;
78074;Laerm;67283;50.960;13.856;2023-04-25T08:09:59;56.82;36.52;68.31;;
78074;Laerm;67283;50.960;13.856;2023-04-25T08:12:27;56.50;36.21;71.09;;
78074;Laerm;67283;50.960;13.856;2023-04-25T08:14:55;65.53;37.56;84.82;;
78074;Laerm;67283;50.960;13.856;2023-04-25T08:17:26;54.81;36.59;76.12;;
78074;Laerm;67283;50.960;13.856;2023-04-25T08:19:54;64.47;38.68;78.16;;
78074;Laerm;67283;50.960;13.856;2023-04-25T08:22:22;58.37;37.58;72.44;;
78074;Laerm;67283;50.960;13.856;2023-04-25T08:24:51;58.99;37.07;74.13;;
78074;Laerm;67283;50.960;13.856;2023-04-25T08:27:19;56.98;37.54;71.35;;
78074;Laerm;67283;50.960;13.856;2023-04-25T08:29:47;60.54;38.99;80.31;;
78074;Laerm;67283;50.960;13.856;2023-04-25T08:32:15;61.21;38.18;75.54;;
78074;Laerm;67283;50.960;13.856;2023-04-25T08:34:46;60.08;39.99;73.08;;
78074;Laerm;67283;50.960;13.856;2023-04-25T08:37:16;58.47;37.64;74.87;;
78074;Laerm;67283;50.960;13.856;2023-04-25T08:39:44;58.01;38.55;72.52;;
78074;Laerm;67283;50.960;13.856;2023-04-25T08:42:13;61.58;38.63;77.32;;
78074;Laerm;67283;50.960;13.856;2023-04-25T08:44:42;58.23;38.55;70.17;;
78074;Laerm;67283;50.960;13.856;2023-04-25T08:47:10;61.73;39.06;80.05;;
78074;Laerm;67283;50.960;13.856;2023-04-25T08:49:38;63.16;38.47;80.63;;
78074;Laerm;67283;50.960;13.856;2023-04-25T08:52:10;59.05;36.97;75.49;;
78074;Laerm;67283;50.960;13.856;2023-04-25T08:54:41;60.61;37.75;75.67;;
78074;Laerm;67283;50.960;13.856;2023-04-25T08:57:10;60.30;37.89;76.21;;
78074;Laerm;67283;50.960;13.856;2023-04-25T08:59:39;57.64;37.10;72.59;;
78074;Laerm;67283;50.960;13.856;2023-04-25T09:02:10;59.85;36.80;72.84;;
78074;Laerm;67283;50.960;13.856;2023-04-25T09:04:42;50.42;36.14;67.52;;
78074;Laerm;67283;50.960;13.856;2023-04-25T09:07:13;54.57;37.17;69.77;;
78074;Laerm;67283;50.960;13.856;2023-04-25T09:09:46;57.20;36.54;72.95;;
78074;Laerm;67283;50.960;13.856;2023-04-25T09:12:14;56.94;36.50;72.31;;
78074;Laerm;67283;50.960;13.856;2023-04-25T09:14:42;56.94;36.50;72.31;;
78074;Laerm;67283;50.960;13.856;2023-04-25T09:17:10;59.00;37.35;72.23;;
78074;Laerm;67283;50.960;13.856;2023-04-25T09:19:38;62.33;37.07;78.79;;
78074;Laerm;67283;50.960;13.856;2023-04-25T09:22:09;61.84;41.86;75.85;;
78074;Laerm;67283;50.960;13.856;2023-04-25T09:24:41;61.84;41.86;75.85;;
78074;Laerm;67283;50.960;13.856;2023-04-25T09:27:11;64.07;40.10;83.89;;
78074;Laerm;67283;50.960;13.856;2023-04-25T09:29:40;56.27;41.11;72.40;;
78074;Laerm;67283;50.960;13.856;2023-04-25T09:32:11;57.58;40.51;73.67;;
78074;Laerm;67283;50.960;13.856;2023-04-25T09:34:40;53.17;39.04;69.36;;
78074;Laerm;67283;50.960;13.856;2023-04-25T09:37:09;58.91;39.94;77.56;;
78074;Laerm;67283;50.960;13.856;2023-04-25T09:39:40;57.07;39.90;68.63;;
78074;Laerm;67283;50.960;13.856;2023-04-25T09:42:08;62.12;40.92;75.02;;
78074;Laerm;67283;50.960;13.856;2023-04-25T09:44:37;62.65;39.31;74.32;;
78074;Laerm;67283;50.960;13.856;2023-04-25T09:47:10;54.87;37.61;69.60;;
78074;Laerm;67283;50.960;13.856;2023-04-25T09:49:39;55.93;38.34;69.77;;
78074;Laerm;67283;50.960;13.856;2023-04-25T09:52:08;58.28;38.35;75.31;;
78074;Laerm;67283;50.960;13.856;2023-04-25T09:54:40;60.05;40.39;71.66;;
78074;Laerm;67283;50.960;13.856;2023-04-25T09:57:10;60.48;38.55;79.30;;
78074;Laerm;67283;50.960;13.856;2023-04-25T09:59:42;61.98;40.64;80.87;;
78074;Laerm;67283;50.960;13.856;2023-04-25T10:02:11;57.36;36.47;70.23;;
78074;Laerm;67283;50.960;13.856;2023-04-25T10:04:40;61.17;36.59;75.11;;
78074;Laerm;67283;50.960;13.856;2023-04-25T10:07:08;60.60;36.65;75.33;;
78074;Laerm;67283;50.960;13.856;2023-04-25T10:09:39;64.79;36.97;82.94;;
78074;Laerm;67283;50.960;13.856;2023-04-25T10:12:08;61.32;36.04;79.12;;
78074;Laerm;67283;50.960;13.856;2023-04-25T10:14:36;56.02;36.61;69.35;;
78074;Laerm;67283;50.960;13.856;2023-04-25T10:17:04;54.96;36.80;75.67;;
78074;Laerm;67283;50.960;13.856;2023-04-25T10:19:32;59.38;38.74;82.92;;
78074;Laerm;67283;50.960;13.856;2023-04-25T10:22:04;61.25;43.20;75.63;;
78074;Laerm;67283;50.960;13.856;2023-04-25T10:24:34;60.39;38.22;74.41;;
78074;Laerm;67283;50.960;13.856;2023-04-25T10:27:05;55.95;37.83;70.36;;
78074;Laerm;67283;50.960;13.856;2023-04-25T10:29:33;60.80;38.89;77.38;;
78074;Laerm;67283;50.960;13.856;2023-04-25T10:32:03;63.01;37.76;81.51;;
78074;Laerm;67283;50.960;13.856;2023-04-25T10:34:38;58.85;37.16;73.35;;
78074;Laerm;67283;50.960;13.856;2023-04-25T10:37:08;58.98;37.57;70.86;;
78074;Laerm;67283;50.960;13.856;2023-04-25T10:39:37;58.53;37.13;70.60;;
78074;Laerm;67283;50.960;13.856;2023-04-25T10:42:08;63.21;38.10;77.84;;
78074;Laerm;67283;50.960;13.856;2023-04-25T10:44:37;58.27;37.17;73.27;;
78074;Laerm;67283;50.960;13.856;2023-04-25T10:47:06;57.53;38.26;72.42;;
78074;Laerm;67283;50.960;13.856;2023-04-25T10:49:35;60.33;38.10;74.60;;
78074;Laerm;67283;50.960;13.856;2023-04-25T10:52:14;66.78;37.60;85.89;;
78074;Laerm;67283;50.960;13.856;2023-04-25T10:54:46;60.44;38.05;76.80;;
78074;Laerm;67283;50.960;13.856;2023-04-25T10:57:30;63.16;37.78;78.27;;
78074;Laerm;67283;50.960;13.856;2023-04-25T11:00:00;58.13;37.13;73.73;;
78074;Laerm;67283;50.960;13.856;2023-04-25T11:02:36;59.40;37.14;71.32;;
78074;Laerm;67283;50.960;13.856;2023-04-25T11:05:05;65.00;37.55;79.16;;
78074;Laerm;67283;50.960;13.856;2023-04-25T11:07:34;53.47;35.89;71.26;;
78074;Laerm;67283;50.960;13.856;2023-04-25T11:10:05;55.36;36.06;70.43;;
78074;Laerm;67283;50.960;13.856;2023-04-25T11:12:36;60.00;37.73;70.97;;
78074;Laerm;67283;50.960;13.856;2023-04-25T11:15:05;56.63;35.90;70.08;;
78074;Laerm;67283;50.960;13.856;2023-04-25T11:17:33;64.12;37.73;80.06;;
78074;Laerm;67283;50.960;13.856;2023-04-25T11:20:02;62.84;36.93;78.36;;
78074;Laerm;67283;50.960;13.856;2023-04-25T11:22:33;59.18;37.56;77.32;;
78074;Laerm;67283;50.960;13.856;2023-04-25T11:25:04;61.19;36.72;75.84;;
78074;Laerm;67283;50.960;13.856;2023-04-25T11:27:32;58.58;36.43;72.77;;
78074;Laerm;67283;50.960;13.856;2023-04-25T11:30:12;58.23;37.19;73.81;;
78074;Laerm;67283;50.960;13.856;2023-04-25T11:32:41;60.47;37.03;74.69;;
78074;Laerm;67283;50.960;13.856;2023-04-25T11:35:09;57.87;39.59;71.96;;
78074;Laerm;67283;50.960;13.856;2023-04-25T11:37:38;57.39;36.70;73.06;;
78074;Laerm;67283;50.960;13.856;2023-04-25T11:40:07;59.60;37.07;74.73;;
78074;Laerm;67283;50.960;13.856;2023-04-25T11:42:36;59.26;36.76;70.31;;
78074;Laerm;67283;50.960;13.856;2023-04-25T11:45:05;53.14;35.88;69.96;;
78074;Laerm;67283;50.960;13.856;2023-04-25T11:47:37;59.82;36.20;75.21;;
78074;Laerm;67283;50.960;13.856;2023-04-25T11:50:05;59.82;36.20;75.21;;
78074;Laerm;67283;50.960;13.856;2023-04-25T11:52:37;60.54;36.64;82.82;;
78074;Laerm;67283;50.960;13.856;2023-04-25T11:55:07;59.25;36.16;71.42;;
78074;Laerm;67283;50.960;13.856;2023-04-25T11:57:35;60.98;36.01;74.93;;
78074;Laerm;67283;50.960;13.856;2023-04-25T12:00:08;58.64;39.04;71.09;;
78074;Laerm;67283;50.960;13.856;2023-04-25T12:02:40;60.83;36.32;75.09;;
78074;Laerm;67283;50.960;13.856;2023-04-25T12:05:08;60.83;36.32;75.09;;
78074;Laerm;67283;50.960;13.856;2023-04-25T12:07:37;62.23;37.99;77.82;;
78074;Laerm;67283;50.960;13.856;2023-04-25T12:10:06;60.12;40.40;71.96;;
78074;Laerm;67283;50.960;13.856;2023-04-25T12:12:35;62.01;41.40;74.94;;
78074;Laerm;67283;50.960;13.856;2023-04-25T12:15:10;59.99;39.78;74.92;;
78074;Laerm;67283;50.960;13.856;2023-04-25T12:17:44;60.16;39.13;72.85;;
78074;Laerm;67283;50.960;13.856;2023-04-25T12:20:13;62.63;42.80;78.94;;
78074;Laerm;67283;50.960;13.856;2023-04-25T12:22:41;62.63;42.80;78.94;;
78074;Laerm;67283;50.960;13.856;2023-04-25T12:25:12;62.35;36.45;79.31;;
78074;Laerm;67283;50.960;13.856;2023-04-25T12:27:40;59.51;36.14;75.30;;
78074;Laerm;67283;50.960;13.856;2023-04-25T12:30:09;60.43;38.90;74.17;;
78074;Laerm;67283;50.960;13.856;2023-04-25T12:32:38;59.91;38.13;74.09;;
78074;Laerm;67283;50.960;13.856;2023-04-25T12:35:09;63.19;37.53;76.20;;
78074;Laerm;67283;50.960;13.856;2023-04-25T12:37:37;61.22;38.53;72.51;;
78074;Laerm;67283;50.960;13.856;2023-04-25T12:40:06;60.33;37.03;78.39;;
78074;Laerm;67283;50.960;13.856;2023-04-25T12:42:35;58.40;36.16;71.76;;
78074;Laerm;67283;50.960;13.856;2023-04-25T12:45:03;61.38;37.07;75.47;;
78074;Laerm;67283;50.960;13.856;2023-04-25T12:47:31;60.99;37.12;72.37;;
78074;Laerm;67283;50.960;13.856;2023-04-25T12:50:00;61.37;36.92;72.99;;
78074;Laerm;67283;50.960;13.856;2023-04-25T12:52:31;61.46;36.39;75.99;;
78074;Laerm;67283;50.960;13.856;2023-04-25T12:54:59;58.50;36.30;75.06;;
78074;Laerm;67283;50.960;13.856;2023-04-25T12:57:27;58.50;36.30;75.06;;
78074;Laerm;67283;50.960;13.856;2023-04-25T12:59:55;63.60;37.41;78.87;;
78074;Laerm;67283;50.960;13.856;2023-04-25T13:02:23;64.01;40.47;78.48;;
78074;Laerm;67283;50.960;13.856;2023-04-25T13:04:51;64.01;40.47;78.48;;
78074;Laerm;67283;50.960;13.856;2023-04-25T13:07:19;61.53;36.64;79.94;;
78074;Laerm;67283;50.960;13.856;2023-04-25T13:09:50;59.56;36.90;76.23;;
78074;Laerm;67283;50.960;13.856;2023-04-25T13:12:18;60.49;38.20;73.46;;
78074;Laerm;67283;50.960;13.856;2023-04-25T13:14:46;60.49;38.20;73.46;;
78074;Laerm;67283;50.960;13.856;2023-04-25T13:17:14;62.11;36.70;74.17;;
78074;Laerm;67283;50.960;13.856;2023-04-25T13:19:42;61.28;38.73;72.05;;
78074;Laerm;67283;50.960;13.856;2023-04-25T13:22:10;62.70;38.14;76.90;;
78074;Laerm;67283;50.960;13.856;2023-04-25T13:24:40;62.12;36.36;72.58;;
78074;Laerm;67283;50.960;13.856;2023-04-25T13:27:11;63.65;37.15;78.31;;
78074;Laerm;67283;50.960;13.856;2023-04-25T13:29:39;63.65;37.15;78.31;;
78074;Laerm;67283;50.960;13.856;2023-04-25T13:32:08;61.34;37.60;75.54;;
78074;Laerm;67283;50.960;13.856;2023-04-25T13:34:36;65.88;42.39;77.99;;
78074;Laerm;67283;50.960;13.856;2023-04-25T13:37:04;63.64;42.97;80.40;;
78074;Laerm;67283;50.960;13.856;2023-04-25T13:39:32;57.99;37.62;70.46;;
78074;Laerm;67283;50.960;13.856;2023-04-25T13:42:00;64.68;38.33;80.79;;